createdAt,value
2018-09-22T00:00:24.842Z,20.89
2018-09-22T00:01:24.856Z,20.87
2018-09-22T00:02:24.872Z,20.87
2018-09-22T00:03:24.890Z,20.84
2018-09-22T00:04:24.897Z,20.87
2018-09-22T00:05:24.917Z,20.92
2018-09-22T00:06:24.935Z,20.84
2018-09-22T00:07:24.999Z,20.82
2018-09-22T00:08:24.968Z,20.84
2018-09-22T00:09:24.987Z,20.84
2018-09-22T00:10:25.000Z,20.87
2018-09-22T00:11:25.012Z,20.73
2018-09-22T00:12:25.070Z,20.85
2018-09-22T00:13:25.054Z,20.74
2018-09-22T00:14:25.077Z,20.79
2018-09-22T00:15:25.085Z,20.74
2018-09-22T00:16:25.099Z,20.67
2018-09-22T00:17:25.162Z,20.72
2018-09-22T00:18:25.155Z,20.66
2018-09-22T00:19:25.144Z,20.64
2018-09-22T00:20:25.160Z,20.69
2018-09-22T00:21:25.176Z,20.69
2018-09-22T00:22:25.197Z,20.69
2018-09-22T00:23:25.216Z,20.66
2018-09-22T00:24:25.232Z,20.59
2018-09-22T00:25:25.240Z,20.57
2018-09-22T00:26:25.264Z,20.54
2018-09-22T00:27:25.286Z,20.50
2018-09-22T00:28:25.292Z,20.43
2018-09-22T00:29:25.365Z,20.43
2018-09-22T00:30:25.320Z,20.43
2018-09-22T00:31:25.349Z,20.41
2018-09-22T00:32:25.355Z,20.42
2018-09-22T00:33:25.379Z,20.43
2018-09-22T00:34:25.393Z,20.47
2018-09-22T00:35:25.409Z,20.43
2018-09-22T00:36:25.430Z,20.39
2018-09-22T00:37:25.445Z,20.43
2018-09-22T00:38:25.464Z,20.43
2018-09-22T00:39:25.475Z,20.38
2018-09-22T00:40:25.492Z,20.36
2018-09-22T00:41:25.510Z,20.48
2018-09-22T00:42:25.536Z,20.38
2018-09-22T00:43:25.535Z,20.38
2018-09-22T00:44:25.552Z,20.35
2018-09-22T00:45:25.562Z,20.39
2018-09-22T00:46:25.578Z,20.39
2018-09-22T00:47:25.600Z,20.38
2018-09-22T00:48:25.614Z,20.35
2018-09-22T00:49:25.635Z,20.33
2018-09-22T00:50:25.651Z,20.24
2018-09-22T00:51:25.669Z,20.33
2018-09-22T00:52:25.677Z,20.31
2018-09-22T00:53:25.698Z,20.24
2018-09-22T00:54:25.712Z,20.32
2018-09-22T00:55:25.733Z,20.26
2018-09-22T00:56:25.745Z,20.29
2018-09-22T00:57:25.767Z,20.23
2018-09-22T00:58:25.786Z,20.16
2018-09-22T00:59:25.797Z,20.18
2018-09-22T01:00:25.811Z,20.14
2018-09-22T01:01:25.833Z,20.16
2018-09-22T01:02:25.848Z,20.20
2018-09-22T01:03:25.862Z,20.06
2018-09-22T01:04:25.882Z,20.18
2018-09-22T01:05:25.952Z,20.23
2018-09-22T01:06:25.905Z,20.20
2018-09-22T01:07:25.940Z,20.17
2018-09-22T01:08:25.941Z,20.20
2018-09-22T01:09:25.963Z,20.17
2018-09-22T01:10:25.979Z,20.13
2018-09-22T01:11:26.046Z,20.10
2018-09-22T01:12:26.007Z,20.06
2018-09-22T01:13:26.027Z,20.10
2018-09-22T01:14:26.046Z,20.14
2018-09-22T01:15:26.065Z,20.05
2018-09-22T01:16:26.073Z,20.08
2018-09-22T01:17:26.090Z,20.14
2018-09-22T01:18:26.100Z,20.10
2018-09-22T01:19:26.122Z,20.10
2018-09-22T01:20:26.142Z,20.11
2018-09-22T01:21:26.159Z,20.06
2018-09-22T01:22:26.175Z,20.10
2018-09-22T01:23:26.191Z,20.03
2018-09-22T01:24:26.206Z,20.18
2018-09-22T01:25:26.242Z,20.13
2018-09-22T01:26:26.232Z,20.14
2018-09-22T01:27:26.250Z,20.13
2018-09-22T01:28:26.268Z,20.11
2018-09-22T01:29:26.294Z,20.11
2018-09-22T01:30:26.299Z,20.06
2018-09-22T01:31:26.325Z,19.96
2018-09-22T01:32:26.332Z,20.03
2018-09-22T01:33:26.349Z,19.94
2018-09-22T01:34:26.370Z,19.92
2018-09-22T01:35:26.380Z,19.99
2018-09-22T01:36:26.400Z,19.94
2018-09-22T01:37:26.446Z,19.95
2018-09-22T01:38:26.429Z,19.94
2018-09-22T01:39:26.446Z,19.94
2018-09-22T01:40:26.459Z,19.83
2018-09-22T01:41:26.481Z,19.87
2018-09-22T01:42:26.491Z,19.86
2018-09-22T01:43:26.560Z,19.98
2018-09-22T01:44:26.536Z,19.92
2018-09-22T01:45:26.539Z,19.94
2018-09-22T01:46:26.554Z,19.87
2018-09-22T01:47:26.578Z,19.91
2018-09-22T01:48:26.595Z,19.88
2018-09-22T01:49:26.613Z,19.94
2018-09-22T01:50:26.625Z,19.94
2018-09-22T01:51:26.638Z,19.87
2018-09-22T01:52:26.696Z,19.96
2018-09-22T01:53:26.675Z,19.96
2018-09-22T01:54:26.691Z,19.91
2018-09-22T01:55:26.713Z,19.94
2018-09-22T01:56:26.725Z,19.92
2018-09-22T01:57:26.738Z,20.01
2018-09-22T01:58:26.753Z,20.05
2018-09-22T01:59:26.776Z,19.96
2018-09-22T02:00:26.793Z,19.95
2018-09-22T02:01:26.820Z,19.99
2018-09-22T02:02:26.835Z,19.98
2018-09-22T02:03:26.837Z,19.96
2018-09-22T02:04:26.851Z,19.96
2018-09-22T02:05:26.867Z,19.86
2018-09-22T02:06:26.878Z,19.87
2018-09-22T02:07:26.894Z,19.91
2018-09-22T02:08:26.909Z,19.81
2018-09-22T02:09:26.930Z,19.83
2018-09-22T02:10:26.954Z,19.81
2018-09-22T02:11:26.967Z,19.92
2018-09-22T02:12:26.969Z,19.81
2018-09-22T02:13:26.993Z,19.95
2018-09-22T02:14:27.008Z,19.91
2018-09-22T02:15:27.032Z,19.87
2018-09-22T02:16:27.053Z,19.81
2018-09-22T02:17:27.057Z,19.88
2018-09-22T02:18:27.079Z,19.87
2018-09-22T02:19:27.096Z,19.84
2018-09-22T02:20:27.126Z,19.81
2018-09-22T02:21:27.128Z,19.78
2018-09-22T02:22:27.137Z,19.87
2018-09-22T02:23:27.156Z,19.81
2018-09-22T02:24:27.178Z,19.81
2018-09-22T02:25:27.188Z,19.92
2018-09-22T02:26:27.267Z,19.88
2018-09-22T02:27:27.228Z,19.92
2018-09-22T02:28:27.242Z,19.87
2018-09-22T02:29:27.252Z,19.77
2018-09-22T02:30:27.283Z,19.86
2018-09-22T02:31:27.290Z,19.81
2018-09-22T02:32:27.322Z,19.84
2018-09-22T02:33:27.313Z,19.84
2018-09-22T02:34:27.339Z,19.87
2018-09-22T02:35:27.360Z,19.87
2018-09-22T02:36:27.371Z,19.94
2018-09-22T02:37:27.381Z,19.91
2018-09-22T02:38:27.450Z,19.91
2018-09-22T02:39:27.424Z,19.92
2018-09-22T02:40:27.434Z,19.92
2018-09-22T02:41:27.471Z,19.96
2018-09-22T02:42:27.471Z,19.95
2018-09-22T02:43:27.481Z,19.96
2018-09-22T02:44:27.492Z,19.87
2018-09-22T02:45:27.517Z,19.91
2018-09-22T02:46:27.534Z,19.96
2018-09-22T02:47:27.549Z,19.91
2018-09-22T02:48:27.562Z,19.88
2018-09-22T02:49:27.581Z,19.91
2018-09-22T02:50:27.618Z,19.95
2018-09-22T02:51:27.610Z,19.94
2018-09-22T02:52:27.619Z,19.96
2018-09-22T02:53:27.642Z,19.94
2018-09-22T02:54:27.662Z,19.94
2018-09-22T02:55:27.666Z,19.86
2018-09-22T02:56:27.711Z,19.83
2018-09-22T02:57:27.707Z,19.87
2018-09-22T02:58:27.726Z,19.81
2018-09-22T02:59:27.742Z,19.88
2018-09-22T03:00:27.761Z,19.86
2018-09-22T03:01:27.772Z,19.91
2018-09-22T03:02:27.799Z,19.92
2018-09-22T03:03:27.813Z,19.96
2018-09-22T03:04:27.816Z,19.99
2018-09-22T03:05:27.848Z,19.86
2018-09-22T03:06:27.853Z,19.98
2018-09-22T03:07:27.874Z,19.95
2018-09-22T03:08:27.910Z,19.92
2018-09-22T03:09:27.895Z,20.06
2018-09-22T03:10:27.922Z,20.02
2018-09-22T03:11:27.932Z,20.02
2018-09-22T03:12:28.000Z,19.99
2018-09-22T03:13:27.959Z,19.91
2018-09-22T03:14:27.977Z,19.95
2018-09-22T03:15:28.042Z,19.94
2018-09-22T03:16:28.008Z,19.86
2018-09-22T03:17:28.029Z,19.96
2018-09-22T03:18:28.039Z,19.92
2018-09-22T03:19:28.062Z,19.94
2018-09-22T03:20:28.075Z,19.96
2018-09-22T03:21:28.097Z,19.91
2018-09-22T03:22:28.113Z,19.96
2018-09-22T03:23:28.125Z,19.91
2018-09-22T03:24:28.141Z,19.96
2018-09-22T03:25:28.159Z,19.96
2018-09-22T03:26:28.174Z,19.94
2018-09-22T03:27:28.270Z,19.95
2018-09-22T03:28:28.207Z,19.95
2018-09-22T03:29:28.219Z,19.96
2018-09-22T03:30:28.234Z,19.96
2018-09-22T03:31:28.269Z,19.88
2018-09-22T03:32:28.270Z,19.87
2018-09-22T03:33:28.294Z,19.91
2018-09-22T03:34:28.312Z,19.99
2018-09-22T03:35:28.350Z,19.87
2018-09-22T03:36:28.328Z,19.88
2018-09-22T03:37:28.352Z,19.91
2018-09-22T03:38:28.380Z,19.91
2018-09-22T03:39:28.393Z,19.95
2018-09-22T03:40:28.394Z,19.88
2018-09-22T03:41:28.409Z,19.96
2018-09-22T03:42:28.434Z,19.91
2018-09-22T03:43:28.447Z,19.94
2018-09-22T03:44:28.469Z,19.99
2018-09-22T03:45:28.478Z,19.88
2018-09-22T03:46:28.493Z,19.83
2018-09-22T03:47:28.508Z,19.88
2018-09-22T03:48:28.528Z,19.86
2018-09-22T03:49:28.543Z,19.95
2018-09-22T03:50:28.564Z,19.98
2018-09-22T03:51:28.664Z,19.92
2018-09-22T03:52:28.600Z,19.91
2018-09-22T03:53:28.612Z,19.95
2018-09-22T03:54:28.628Z,19.94
2018-09-22T03:55:28.639Z,19.98
2018-09-22T03:56:28.661Z,19.94
2018-09-22T03:57:28.702Z,19.99
2018-09-22T03:58:28.689Z,19.99
2018-09-22T03:59:28.704Z,20.02
2018-09-22T04:00:28.722Z,20.03
2018-09-22T04:01:28.741Z,20.10
2018-09-22T04:02:28.752Z,20.10
2018-09-22T04:03:28.811Z,19.98
2018-09-22T04:04:28.784Z,20.11
2018-09-22T04:05:28.807Z,20.03
2018-09-22T04:06:28.819Z,20.03
2018-09-22T04:07:28.837Z,19.92
2018-09-22T04:08:28.857Z,19.98
2018-09-22T04:09:28.919Z,19.91
2018-09-22T04:10:28.879Z,19.96
2018-09-22T04:11:28.905Z,19.95
2018-09-22T04:12:28.909Z,19.95
2018-09-22T04:13:28.928Z,19.95
2018-09-22T04:14:28.952Z,19.87
2018-09-22T04:15:29.058Z,19.87
2018-09-22T04:16:28.977Z,19.87
2018-09-22T04:17:29.000Z,19.88
2018-09-22T04:18:29.014Z,19.87
2018-09-22T04:19:29.030Z,19.80
2018-09-22T04:20:29.047Z,19.83
2018-09-22T04:21:29.138Z,19.80
2018-09-22T04:22:29.070Z,19.77
2018-09-22T04:23:29.104Z,19.77
2018-09-22T04:24:29.106Z,19.81
2018-09-22T04:25:29.120Z,19.81
2018-09-22T04:26:29.142Z,19.88
2018-09-22T04:27:29.186Z,19.83
2018-09-22T04:28:29.185Z,19.94
2018-09-22T04:29:29.192Z,19.83
2018-09-22T04:30:29.202Z,19.87
2018-09-22T04:31:29.222Z,19.77
2018-09-22T04:32:29.238Z,19.77
2018-09-22T04:33:29.340Z,19.81
2018-09-22T04:34:29.273Z,19.78
2018-09-22T04:35:29.288Z,19.78
2018-09-22T04:36:29.302Z,19.73
2018-09-22T04:37:29.334Z,19.73
2018-09-22T04:38:29.343Z,19.77
2018-09-22T04:39:29.358Z,19.78
2018-09-22T04:40:29.365Z,19.81
2018-09-22T04:41:29.390Z,19.69
2018-09-22T04:42:29.399Z,19.73
2018-09-22T04:43:29.414Z,19.78
2018-09-22T04:44:29.430Z,19.78
2018-09-22T04:45:29.443Z,19.69
2018-09-22T04:46:29.469Z,19.73
2018-09-22T04:47:29.483Z,19.73
2018-09-22T04:48:29.508Z,19.65
2018-09-22T04:49:29.509Z,19.69
2018-09-22T04:50:29.527Z,19.66
2018-09-22T04:51:29.541Z,19.62
2018-09-22T04:52:29.577Z,19.59
2018-09-22T04:53:29.585Z,19.63
2018-09-22T04:54:29.591Z,19.61
2018-09-22T04:55:29.609Z,19.76
2018-09-22T04:56:29.627Z,19.63
2018-09-22T04:57:29.642Z,19.62
2018-09-22T04:58:29.722Z,19.59
2018-09-22T04:59:29.667Z,19.66
2018-09-22T05:00:29.687Z,19.65
2018-09-22T05:01:29.704Z,19.61
2018-09-22T05:02:29.720Z,19.59
2018-09-22T05:03:29.737Z,19.69
2018-09-22T05:04:29.795Z,19.61
2018-09-22T05:05:29.765Z,19.63
2018-09-22T05:06:29.783Z,19.63
2018-09-22T05:07:29.805Z,19.71
2018-09-22T05:08:29.821Z,19.65
2018-09-22T05:09:29.834Z,19.56
2018-09-22T05:10:29.848Z,19.66
2018-09-22T05:11:29.863Z,19.61
2018-09-22T05:12:29.890Z,19.63
2018-09-22T05:13:29.896Z,19.65
2018-09-22T05:14:29.916Z,19.62
2018-09-22T05:15:29.935Z,19.51
2018-09-22T05:16:29.944Z,19.61
2018-09-22T05:17:29.956Z,19.55
2018-09-22T05:18:29.973Z,19.55
2018-09-22T05:19:29.987Z,19.48
2018-09-22T05:20:30.010Z,19.54
2018-09-22T05:21:30.024Z,19.41
2018-09-22T05:22:30.040Z,19.46
2018-09-22T05:23:30.060Z,19.37
2018-09-22T05:24:30.067Z,19.40
2018-09-22T05:25:30.095Z,19.47
2018-09-22T05:26:30.111Z,19.46
2018-09-22T05:27:30.127Z,19.44
2018-09-22T05:28:30.155Z,19.47
2018-09-22T05:29:30.153Z,19.48
2018-09-22T05:30:30.171Z,19.44
2018-09-22T05:31:30.195Z,19.48
2018-09-22T05:32:30.209Z,19.44
2018-09-22T05:33:30.285Z,19.51
2018-09-22T05:34:30.258Z,19.47
2018-09-22T05:35:30.307Z,19.47
2018-09-22T05:36:30.264Z,19.58
2018-09-22T05:37:30.286Z,19.46
2018-09-22T05:38:30.297Z,19.41
2018-09-22T05:39:30.315Z,19.39
2018-09-22T05:40:30.408Z,19.40
2018-09-22T05:41:30.346Z,19.39
2018-09-22T05:42:30.363Z,19.40
2018-09-22T05:43:30.378Z,19.37
2018-09-22T05:44:30.393Z,19.50
2018-09-22T05:45:30.413Z,19.43
2018-09-22T05:46:30.470Z,19.36
2018-09-22T05:47:30.453Z,19.39
2018-09-22T05:48:30.466Z,19.46
2018-09-22T05:49:30.472Z,19.55
2018-09-22T05:50:30.490Z,19.54
2018-09-22T05:51:30.518Z,19.47
2018-09-22T05:52:30.548Z,19.61
2018-09-22T05:53:30.540Z,19.56
2018-09-22T05:54:30.560Z,19.56
2018-09-22T05:55:30.570Z,19.58
2018-09-22T05:56:30.589Z,19.56
2018-09-22T05:57:30.598Z,19.58
2018-09-22T05:58:30.647Z,19.50
2018-09-22T05:59:30.651Z,19.59
2018-09-22T06:00:30.648Z,19.44
2018-09-22T06:01:30.668Z,19.48
2018-09-22T06:02:30.676Z,19.48
2018-09-22T06:03:30.724Z,19.41
2018-09-22T06:04:30.804Z,19.50
2018-09-22T06:05:30.730Z,19.48
2018-09-22T06:06:30.741Z,19.50
2018-09-22T06:07:30.769Z,19.47
2018-09-22T06:08:30.787Z,19.50
2018-09-22T06:09:30.811Z,19.47
2018-09-22T06:10:30.826Z,19.50
2018-09-22T06:11:30.830Z,19.44
2018-09-22T06:12:30.843Z,19.54
2018-09-22T06:13:30.863Z,19.54
2018-09-22T06:14:30.876Z,19.46
2018-09-22T06:15:30.896Z,19.54
2018-09-22T06:16:30.908Z,19.54
2018-09-22T06:17:30.926Z,19.55
2018-09-22T06:18:30.950Z,19.61
2018-09-22T06:19:30.958Z,19.65
2018-09-22T06:20:30.969Z,19.50
2018-09-22T06:21:30.985Z,19.55
2018-09-22T06:22:31.004Z,19.44
2018-09-22T06:23:31.095Z,19.46
2018-09-22T06:24:31.043Z,19.48
2018-09-22T06:25:31.055Z,19.48
2018-09-22T06:26:31.072Z,19.50
2018-09-22T06:27:31.081Z,19.47
2018-09-22T06:28:31.102Z,19.58
2018-09-22T06:29:31.114Z,19.55
2018-09-22T06:30:31.126Z,19.61
2018-09-22T06:31:31.150Z,19.63
2018-09-22T06:32:31.169Z,19.47
2018-09-22T06:33:31.183Z,19.55
2018-09-22T06:34:31.201Z,19.50
2018-09-22T06:35:31.221Z,19.58
2018-09-22T06:36:31.233Z,19.54
2018-09-22T06:37:31.335Z,19.50
2018-09-22T06:38:31.260Z,19.56
2018-09-22T06:39:31.278Z,19.59
2018-09-22T06:40:31.296Z,19.56
2018-09-22T06:41:31.315Z,19.61
2018-09-22T06:42:31.340Z,19.54
2018-09-22T06:43:31.350Z,19.51
2018-09-22T06:44:31.363Z,19.54
2018-09-22T06:45:31.376Z,19.63
2018-09-22T06:46:31.392Z,19.66
2018-09-22T06:47:31.458Z,19.63
2018-09-22T06:48:31.425Z,19.51
2018-09-22T06:49:31.437Z,19.66
2018-09-22T06:50:31.469Z,19.65
2018-09-22T06:51:31.476Z,19.65
2018-09-22T06:52:31.489Z,19.76
2018-09-22T06:53:31.583Z,19.77
2018-09-22T06:54:31.518Z,19.86
2018-09-22T06:55:31.542Z,19.73
2018-09-22T06:56:31.554Z,19.84
2018-09-22T06:57:31.567Z,19.91
2018-09-22T06:58:31.587Z,19.74
2018-09-22T06:59:31.627Z,19.76
2018-09-22T07:00:31.623Z,19.77
2018-09-22T07:01:31.636Z,19.87
2018-09-22T07:02:31.661Z,19.74
2018-09-22T07:03:31.666Z,19.77
2018-09-22T07:04:31.679Z,19.78
2018-09-22T07:05:31.699Z,19.76
2018-09-22T07:06:31.866Z,19.78
2018-09-22T07:07:31.738Z,19.86
2018-09-22T07:08:31.745Z,19.96
2018-09-22T07:09:31.764Z,19.95
2018-09-22T07:10:31.783Z,19.99
2018-09-22T07:11:31.829Z,20.02
2018-09-22T07:12:31.821Z,20.14
2018-09-22T07:13:31.821Z,20.02
2018-09-22T07:14:31.845Z,19.98
2018-09-22T07:15:31.862Z,20.08
2018-09-22T07:16:31.877Z,20.21
2018-09-22T07:17:31.893Z,20.17
2018-09-22T07:18:31.911Z,20.18
2018-09-22T07:19:32.000Z,20.33
2018-09-22T07:20:31.941Z,20.59
2018-09-22T07:21:31.964Z,21.27
2018-09-22T07:22:31.977Z,21.74
2018-09-22T07:23:31.992Z,22.12
2018-09-22T07:24:32.002Z,22.57
2018-09-22T07:25:32.113Z,22.75
2018-09-22T07:26:32.044Z,23.00
2018-09-22T07:27:32.055Z,23.25
2018-09-22T07:28:32.072Z,23.31
2018-09-22T07:29:32.108Z,23.54
2018-09-22T07:30:32.102Z,23.54
2018-09-22T07:31:32.120Z,23.69
2018-09-22T07:32:32.152Z,24.21
2018-09-22T07:33:32.163Z,24.25
2018-09-22T07:34:32.172Z,24.69
2018-09-22T07:35:32.200Z,25.05
2018-09-22T07:36:32.221Z,25.13
2018-09-22T07:37:32.239Z,25.32
2018-09-22T07:38:32.252Z,25.38
2018-09-22T07:39:32.379Z,25.75
2018-09-22T07:40:32.285Z,25.91
2018-09-22T07:41:32.294Z,26.30
2018-09-22T07:42:32.318Z,26.18
2018-09-22T07:43:32.340Z,26.15
2018-09-22T07:44:32.357Z,26.32
2018-09-22T07:45:32.385Z,26.17
2018-09-22T07:46:32.391Z,26.30
2018-09-22T07:47:32.410Z,26.26
2018-09-22T07:48:32.428Z,26.10
2018-09-22T07:49:32.450Z,26.10
2018-09-22T07:50:32.468Z,26.18
2018-09-22T07:51:32.489Z,26.47
2018-09-22T07:52:32.497Z,26.63
2018-09-22T07:53:32.527Z,26.35
2018-09-22T07:54:32.542Z,26.37
2018-09-22T07:55:32.565Z,26.10
2018-09-22T07:56:32.583Z,26.05
2018-09-22T07:57:32.604Z,25.92
2018-09-22T07:58:32.631Z,25.55
2018-09-22T07:59:32.641Z,25.92
2018-09-22T08:00:32.803Z,26.51
2018-09-22T08:01:32.673Z,26.77
2018-09-22T08:02:32.695Z,27.00
2018-09-22T08:03:32.714Z,26.48
2018-09-22T08:04:32.729Z,26.73
2018-09-22T08:05:32.760Z,26.94
2018-09-22T08:06:32.780Z,27.13
2018-09-22T08:07:32.795Z,27.32
2018-09-22T08:08:32.817Z,27.14
2018-09-22T08:09:32.827Z,27.28
2018-09-22T08:10:32.856Z,27.29
2018-09-22T08:11:32.876Z,27.29
2018-09-22T08:12:32.886Z,27.44
2018-09-22T08:13:32.913Z,27.02
2018-09-22T08:14:32.930Z,27.12
2018-09-22T08:15:32.951Z,27.24
2018-09-22T08:16:32.983Z,27.40
2018-09-22T08:17:32.994Z,27.79
2018-09-22T08:18:33.052Z,27.78
2018-09-22T08:19:33.024Z,28.04
2018-09-22T08:20:33.056Z,28.11
2018-09-22T08:21:33.071Z,27.87
2018-09-22T08:22:33.089Z,28.15
2018-09-22T08:23:33.106Z,28.34
2018-09-22T08:24:33.119Z,28.29
2018-09-22T08:25:33.149Z,27.94
2018-09-22T08:26:33.168Z,28.17
2018-09-22T08:27:33.188Z,28.30
2018-09-22T08:28:33.212Z,28.37
2018-09-22T08:29:33.231Z,28.36
2018-09-22T08:30:33.246Z,28.36
2018-09-22T08:31:33.272Z,28.64
2018-09-22T08:32:33.288Z,28.76
2018-09-22T08:33:33.305Z,28.49
2018-09-22T08:34:33.332Z,28.77
2018-09-22T08:35:33.349Z,29.14
2018-09-22T08:36:33.535Z,29.31
2018-09-22T08:37:33.388Z,29.41
2018-09-22T08:38:33.409Z,29.33
2018-09-22T08:39:33.438Z,29.48
2018-09-22T08:40:33.452Z,29.43
2018-09-22T08:41:33.472Z,29.31
2018-09-22T08:42:33.492Z,29.33
2018-09-22T08:43:33.510Z,29.21
2018-09-22T08:44:33.535Z,29.30
2018-09-22T08:45:33.557Z,29.31
2018-09-22T08:46:33.579Z,29.33
2018-09-22T08:47:33.599Z,28.73
2018-09-22T08:48:33.626Z,28.77
2018-09-22T08:49:33.671Z,29.00
2018-09-22T08:50:33.661Z,29.08
2018-09-22T08:51:33.682Z,29.33
2018-09-22T08:52:33.703Z,29.33
2018-09-22T08:53:33.720Z,29.16
2018-09-22T08:54:33.745Z,29.34
2018-09-22T08:55:33.763Z,29.45
2018-09-22T08:56:33.792Z,29.71
2018-09-22T08:57:33.813Z,29.83
2018-09-22T08:58:33.831Z,29.24
2018-09-22T08:59:33.844Z,29.24
2018-09-22T09:00:33.988Z,29.51
2018-09-22T09:01:33.888Z,29.42
2018-09-22T09:02:33.915Z,29.27
2018-09-22T09:03:33.932Z,29.18
2018-09-22T09:04:33.955Z,29.31
2018-09-22T09:05:33.973Z,29.43
2018-09-22T09:06:34.032Z,29.28
2018-09-22T09:07:34.010Z,29.27
2018-09-22T09:08:34.037Z,29.52
2018-09-22T09:09:34.066Z,29.86
2018-09-22T09:10:34.089Z,29.85
2018-09-22T09:11:34.203Z,30.10
2018-09-22T09:12:34.134Z,30.38
2018-09-22T09:13:34.181Z,30.42
2018-09-22T09:14:34.185Z,30.75
2018-09-22T09:15:34.194Z,30.76
2018-09-22T09:16:34.205Z,30.94
2018-09-22T09:17:34.230Z,30.70
2018-09-22T09:18:34.257Z,30.43
2018-09-22T09:19:34.278Z,30.86
2018-09-22T09:20:34.295Z,30.91
2018-09-22T09:21:34.317Z,30.98
2018-09-22T09:22:34.343Z,30.86
2018-09-22T09:23:34.367Z,30.62
2018-09-22T09:24:34.379Z,30.51
2018-09-22T09:25:34.405Z,30.73
2018-09-22T09:26:34.422Z,30.77
2018-09-22T09:27:34.527Z,30.88
2018-09-22T09:28:34.470Z,30.91
2018-09-22T09:29:34.500Z,30.89
2018-09-22T09:30:34.524Z,30.92
2018-09-22T09:31:34.543Z,30.88
2018-09-22T09:32:34.558Z,31.01
2018-09-22T09:33:34.574Z,31.16
2018-09-22T09:34:34.613Z,31.31
2018-09-22T09:35:34.627Z,31.63
2018-09-22T09:36:34.644Z,31.51
2018-09-22T09:37:34.717Z,30.76
2018-09-22T09:38:34.698Z,30.95
2018-09-22T09:39:34.708Z,31.17
2018-09-22T09:40:34.739Z,31.32
2018-09-22T09:41:34.764Z,31.06
2018-09-22T09:42:34.782Z,31.34
2018-09-22T09:43:34.857Z,31.14
2018-09-22T09:44:34.823Z,31.65
2018-09-22T09:45:34.846Z,31.76
2018-09-22T09:46:34.869Z,32.29
2018-09-22T09:47:34.891Z,32.37
2018-09-22T09:48:34.924Z,32.43
2018-09-22T09:49:34.944Z,32.55
2018-09-22T09:50:34.966Z,32.66
2018-09-22T09:51:34.981Z,32.41
2018-09-22T09:52:35.006Z,32.15
2018-09-22T09:53:35.026Z,32.07
2018-09-22T09:54:35.122Z,31.47
2018-09-22T09:55:35.069Z,31.69
2018-09-22T09:56:35.096Z,31.76
2018-09-22T09:57:35.120Z,32.11
2018-09-22T09:58:35.144Z,32.47
2018-09-22T09:59:35.161Z,32.60
2018-09-22T10:00:35.193Z,32.93
2018-09-22T10:01:35.205Z,33.09
2018-09-22T10:02:35.246Z,32.70
2018-09-22T10:03:35.252Z,32.93
2018-09-22T10:04:35.348Z,32.97
2018-09-22T10:05:35.302Z,33.07
2018-09-22T10:06:35.328Z,33.15
2018-09-22T10:07:35.343Z,33.14
2018-09-22T10:08:35.434Z,33.34
2018-09-22T10:09:35.390Z,33.56
2018-09-22T10:10:35.421Z,33.71
2018-09-22T10:11:35.440Z,33.68
2018-09-22T10:12:35.465Z,33.56
2018-09-22T10:13:35.487Z,33.86
2018-09-22T10:14:35.534Z,33.87
2018-09-22T10:15:35.534Z,33.76
2018-09-22T10:16:35.556Z,33.95
2018-09-22T10:17:35.579Z,33.68
2018-09-22T10:18:35.597Z,33.93
2018-09-22T10:19:35.629Z,34.08
2018-09-22T10:20:35.648Z,34.09
2018-09-22T10:21:35.667Z,34.32
2018-09-22T10:22:35.691Z,33.88
2018-09-22T10:23:35.714Z,34.16
2018-09-22T10:24:35.742Z,34.40
2018-09-22T10:25:35.763Z,34.21
2018-09-22T10:26:35.859Z,33.38
2018-09-22T10:27:35.815Z,33.42
2018-09-22T10:28:35.867Z,33.72
2018-09-22T10:29:35.857Z,33.73
2018-09-22T10:30:35.886Z,33.88
2018-09-22T10:31:35.906Z,34.09
2018-09-22T10:32:35.930Z,33.88
2018-09-22T10:33:35.959Z,34.06
2018-09-22T10:34:35.977Z,34.30
2018-09-22T10:35:36.007Z,34.62
2018-09-22T10:36:36.030Z,34.54
2018-09-22T10:37:36.056Z,34.73
2018-09-22T10:38:36.070Z,34.49
2018-09-22T10:39:36.140Z,34.42
2018-09-22T10:40:36.117Z,34.56
2018-09-22T10:41:36.152Z,34.89
2018-09-22T10:42:36.166Z,35.04
2018-09-22T10:43:36.191Z,35.29
2018-09-22T10:44:36.217Z,35.21
2018-09-22T10:45:36.242Z,35.02
2018-09-22T10:46:36.260Z,34.87
2018-09-22T10:47:36.295Z,34.88
2018-09-22T10:48:36.318Z,35.04
2018-09-22T10:49:36.342Z,35.02
2018-09-22T10:50:36.371Z,35.16
2018-09-22T10:51:36.475Z,35.14
2018-09-22T10:52:36.495Z,35.52
2018-09-22T10:53:36.444Z,35.48
2018-09-22T10:54:36.450Z,35.50
2018-09-22T10:55:36.535Z,35.55
2018-09-22T10:56:36.513Z,35.19
2018-09-22T10:57:36.524Z,35.03
2018-09-22T10:58:36.558Z,35.22
2018-09-22T10:59:36.582Z,35.14
2018-09-22T11:00:36.608Z,35.28
2018-09-22T11:01:36.631Z,35.60
2018-09-22T11:02:36.648Z,35.75
2018-09-22T11:03:36.668Z,35.82
2018-09-22T11:04:36.705Z,35.55
2018-09-22T11:05:36.728Z,35.89
2018-09-22T11:06:36.746Z,35.78
2018-09-22T11:07:36.781Z,35.55
2018-09-22T11:08:36.813Z,35.81
2018-09-22T11:09:36.822Z,35.72
2018-09-22T11:10:36.849Z,35.93
2018-09-22T11:11:36.878Z,36.00
2018-09-22T11:12:36.918Z,35.97
2018-09-22T11:13:36.933Z,35.96
2018-09-22T11:14:36.946Z,35.84
2018-09-22T11:15:36.986Z,34.53
2018-09-22T11:16:36.991Z,34.89
2018-09-22T11:17:37.024Z,35.10
2018-09-22T11:18:37.048Z,35.29
2018-09-22T11:19:37.076Z,35.68
2018-09-22T11:20:37.092Z,36.05
2018-09-22T11:21:37.121Z,36.34
2018-09-22T11:22:37.145Z,36.69
2018-09-22T11:23:37.171Z,36.39
2018-09-22T11:24:37.202Z,35.66
2018-09-22T11:25:37.213Z,35.71
2018-09-22T11:26:37.242Z,35.65
2018-09-22T11:27:37.268Z,35.85
2018-09-22T11:28:37.293Z,35.85
2018-09-22T11:29:37.317Z,36.28
2018-09-22T11:30:37.337Z,36.31
2018-09-22T11:31:37.377Z,36.34
2018-09-22T11:32:37.437Z,36.50
2018-09-22T11:33:37.420Z,36.57
2018-09-22T11:34:37.484Z,36.65
2018-09-22T11:35:37.462Z,36.98
2018-09-22T11:36:37.492Z,36.88
2018-09-22T11:37:37.510Z,37.09
2018-09-22T11:38:37.551Z,36.66
2018-09-22T11:39:37.563Z,36.47
2018-09-22T11:40:37.608Z,36.27
2018-09-22T11:41:37.621Z,36.66
2018-09-22T11:42:37.640Z,37.07
2018-09-22T11:43:37.665Z,37.43
2018-09-22T11:44:37.691Z,37.59
2018-09-22T11:45:37.708Z,37.67
2018-09-22T11:46:37.737Z,37.98
2018-09-22T11:47:37.766Z,38.06
2018-09-22T11:48:37.783Z,37.62
2018-09-22T11:49:37.823Z,36.95
2018-09-22T11:50:37.838Z,36.99
2018-09-22T11:51:37.875Z,36.98
2018-09-22T11:52:37.891Z,37.47
2018-09-22T11:53:37.910Z,38.06
2018-09-22T11:54:37.942Z,38.47
2018-09-22T11:55:37.970Z,38.47
2018-09-22T11:56:37.984Z,38.13
2018-09-22T11:57:38.013Z,37.50
2018-09-22T11:58:38.036Z,37.72
2018-09-22T11:59:38.091Z,38.41
2018-09-22T12:00:38.092Z,38.61
2018-09-22T12:01:38.120Z,38.28
2018-09-22T12:02:38.137Z,38.04
2018-09-22T12:03:38.175Z,37.98
2018-09-22T12:04:38.199Z,37.39
2018-09-22T12:05:38.215Z,36.99
2018-09-22T12:06:38.367Z,37.27
2018-09-22T12:07:38.265Z,37.55
2018-09-22T12:08:38.294Z,37.88
2018-09-22T12:09:38.330Z,37.84
2018-09-22T12:10:38.349Z,38.19
2018-09-22T12:11:38.375Z,38.20
2018-09-22T12:12:38.401Z,38.18
2018-09-22T12:13:38.423Z,38.11
2018-09-22T12:14:38.452Z,38.11
2018-09-22T12:15:38.484Z,38.07
2018-09-22T12:16:38.513Z,38.47
2018-09-22T12:17:38.526Z,38.12
2018-09-22T12:18:38.544Z,37.85
2018-09-22T12:19:38.572Z,38.18
2018-09-22T12:20:38.602Z,38.68
2018-09-22T12:21:38.627Z,38.91
2018-09-22T12:22:38.661Z,39.09
2018-09-22T12:23:38.686Z,38.69
2018-09-22T12:24:38.712Z,39.07
2018-09-22T12:25:38.942Z,39.54
2018-09-22T12:26:38.960Z,39.85
2018-09-22T12:27:38.792Z,40.07
2018-09-22T12:28:38.813Z,39.98
2018-09-22T12:29:38.840Z,40.18
2018-09-22T12:30:38.864Z,39.94
2018-09-22T12:31:38.886Z,39.96
2018-09-22T12:32:38.910Z,40.01
2018-09-22T12:33:38.957Z,40.10
2018-09-22T12:34:38.972Z,40.01
2018-09-22T12:35:38.993Z,40.01
2018-09-22T12:36:39.025Z,40.13
2018-09-22T12:37:39.043Z,39.97
2018-09-22T12:38:39.080Z,39.89
2018-09-22T12:39:39.103Z,38.99
2018-09-22T12:40:39.127Z,38.26
2018-09-22T12:41:39.205Z,38.59
2018-09-22T12:42:39.180Z,38.90
2018-09-22T12:43:39.210Z,39.07
2018-09-22T12:44:39.226Z,39.21
2018-09-22T12:45:39.254Z,39.38
2018-09-22T12:46:39.292Z,39.51
2018-09-22T12:47:39.338Z,39.51
2018-09-22T12:48:39.341Z,38.69
2018-09-22T12:49:39.365Z,38.59
2018-09-22T12:50:39.394Z,38.95
2018-09-22T12:51:39.425Z,39.28
2018-09-22T12:52:39.443Z,39.54